createdAt,value
2018-08-11T00:00:05.628Z,73.21
2018-08-11T00:01:05.820Z,73.21
2018-08-11T00:02:06.009Z,73.30
2018-08-11T00:03:06.196Z,73.40
2018-08-11T00:04:06.369Z,72.73
2018-08-11T00:05:06.547Z,72.73
2018-08-11T00:06:06.722Z,73.11
2018-08-11T00:07:06.899Z,73.88
2018-08-11T00:08:07.086Z,73.69
2018-08-11T00:09:07.266Z,73.88
2018-08-11T00:10:07.436Z,73.79
2018-08-11T00:11:07.614Z,73.79
2018-08-11T00:12:07.785Z,74.07
2018-08-11T00:13:07.965Z,73.69
2018-08-11T00:14:08.141Z,74.36
2018-08-11T00:15:08.320Z,74.07
2018-08-11T00:16:08.503Z,74.16
2018-08-11T00:17:08.672Z,74.45
2018-08-11T00:18:08.846Z,74.45
2018-08-11T00:19:09.022Z,74.36
2018-08-11T00:20:09.203Z,74.36
2018-08-11T00:21:09.382Z,74.36
2018-08-11T00:22:09.557Z,74.36
2018-08-11T00:23:09.732Z,74.26
2018-08-11T00:24:09.905Z,73.59
2018-08-11T00:25:10.083Z,73.59
2018-08-11T00:26:10.260Z,74.36
2018-08-11T00:27:10.439Z,74.36
2018-08-11T00:28:10.609Z,73.97
2018-08-11T00:29:10.786Z,73.88
2018-08-11T00:30:10.963Z,73.69
2018-08-11T00:31:11.146Z,73.69
2018-08-11T00:32:11.323Z,73.79
2018-08-11T00:33:11.500Z,73.59
2018-08-11T00:34:11.671Z,73.50
2018-08-11T00:35:11.853Z,73.50
2018-08-11T00:36:12.026Z,74.07
2018-08-11T00:37:12.195Z,73.97
2018-08-11T00:38:12.371Z,73.69
2018-08-11T00:39:12.544Z,73.69
2018-08-11T00:40:12.717Z,73.97
2018-08-11T00:41:12.884Z,72.63
2018-08-11T00:42:13.075Z,73.30
2018-08-11T00:43:13.265Z,73.11
2018-08-11T00:44:13.434Z,73.02
2018-08-11T00:45:13.629Z,72.73
2018-08-11T00:46:13.796Z,72.73
2018-08-11T00:47:13.970Z,73.02
2018-08-11T00:48:14.166Z,72.73
2018-08-11T00:49:14.363Z,72.96
2018-08-11T00:50:14.540Z,72.25
2018-08-11T00:51:14.712Z,73.02
2018-08-11T00:52:14.905Z,72.92
2018-08-11T00:53:15.076Z,72.83
2018-08-11T00:54:15.249Z,73.02
2018-08-11T00:55:15.434Z,73.02
2018-08-11T00:56:15.597Z,72.63
2018-08-11T00:57:15.779Z,72.73
2018-08-11T00:58:15.978Z,73.21
2018-08-11T00:59:16.140Z,73.02
2018-08-11T01:00:16.321Z,72.98
2018-08-11T01:01:16.486Z,73.11
2018-08-11T01:02:16.667Z,73.79
2018-08-11T01:03:16.843Z,73.65
2018-08-11T01:04:17.036Z,73.46
2018-08-11T01:05:17.182Z,74.13
2018-08-11T01:06:17.355Z,73.55
2018-08-11T01:07:18.739Z,73.65
2018-08-11T01:08:19.360Z,73.75
2018-08-11T01:09:17.887Z,74.41
2018-08-11T01:10:18.058Z,73.94
2018-08-11T01:11:18.238Z,74.32
2018-08-11T01:12:18.410Z,74.70
2018-08-11T01:13:18.596Z,74.70
2018-08-11T01:14:18.766Z,75.18
2018-08-11T01:15:18.942Z,75.62
2018-08-11T01:16:19.123Z,75.52
2018-08-11T01:17:19.296Z,75.71
2018-08-11T01:18:19.477Z,76.20
2018-08-11T01:19:19.645Z,75.81
2018-08-11T01:20:19.816Z,75.47
2018-08-11T01:21:19.991Z,75.52
2018-08-11T01:22:20.186Z,75.52
2018-08-11T01:23:20.372Z,75.34
2018-08-11T01:24:20.543Z,75.52
2018-08-11T01:25:20.721Z,75.34
2018-08-11T01:26:20.899Z,75.43
2018-08-11T01:27:21.071Z,75.81
2018-08-11T01:28:21.242Z,76.10
2018-08-11T01:29:21.420Z,76.20
2018-08-11T01:30:21.602Z,75.24
2018-08-11T01:31:21.770Z,75.91
2018-08-11T01:32:21.942Z,76.20
2018-08-11T01:33:22.109Z,76.20
2018-08-11T01:34:22.286Z,76.00
2018-08-11T01:35:22.457Z,76.29
2018-08-11T01:36:22.636Z,76.39
2018-08-11T01:37:22.827Z,76.96
2018-08-11T01:38:23.000Z,76.67
2018-08-11T01:39:23.173Z,76.86
2018-08-11T01:40:23.347Z,76.20
2018-08-11T01:41:23.516Z,76.48
2018-08-11T01:42:23.683Z,76.86
2018-08-11T01:43:23.856Z,76.96
2018-08-11T01:44:24.124Z,76.48
2018-08-11T01:45:24.199Z,75.91
2018-08-11T01:46:24.379Z,76.20
2018-08-11T01:47:24.558Z,76.96
2018-08-11T01:48:24.730Z,76.77
2018-08-11T01:49:24.897Z,77.25
2018-08-11T01:50:25.073Z,77.25
2018-08-11T01:51:25.247Z,76.57
2018-08-11T01:52:25.431Z,76.77
2018-08-11T01:53:25.610Z,76.57
2018-08-11T01:54:25.781Z,76.57
2018-08-11T01:55:25.960Z,76.77
2018-08-11T01:56:26.134Z,77.15
2018-08-11T01:57:26.304Z,76.67
2018-08-11T01:58:26.482Z,76.67
2018-08-11T01:59:26.660Z,76.67
2018-08-11T02:00:26.836Z,76.77
2018-08-11T02:01:27.024Z,76.57
2018-08-11T02:02:27.197Z,76.77
2018-08-11T02:03:27.370Z,76.57
2018-08-11T02:04:27.539Z,77.30
2018-08-11T02:05:27.708Z,76.92
2018-08-11T02:06:27.882Z,77.34
2018-08-11T02:07:28.049Z,77.11
2018-08-11T02:08:28.228Z,77.40
2018-08-11T02:09:28.403Z,77.40
2018-08-11T02:10:28.581Z,76.73
2018-08-11T02:11:28.753Z,77.53
2018-08-11T02:12:28.921Z,77.25
2018-08-11T02:13:29.097Z,77.40
2018-08-11T02:14:29.272Z,77.40
2018-08-11T02:15:29.444Z,77.30
2018-08-11T02:16:29.620Z,77.11
2018-08-11T02:17:29.797Z,77.40
2018-08-11T02:18:29.964Z,77.30
2018-08-11T02:19:30.146Z,77.40
2018-08-11T02:20:30.325Z,77.50
2018-08-11T02:21:30.494Z,77.40
2018-08-11T02:22:30.671Z,77.87
2018-08-11T02:23:30.841Z,77.59
2018-08-11T02:24:31.015Z,77.78
2018-08-11T02:25:31.184Z,77.69
2018-08-11T02:26:31.356Z,77.87
2018-08-11T02:27:31.529Z,77.78
2018-08-11T02:28:31.705Z,77.69
2018-08-11T02:29:31.875Z,77.59
2018-08-11T02:30:32.041Z,77.78
2018-08-11T02:31:32.230Z,77.97
2018-08-11T02:32:32.411Z,77.78
2018-08-11T02:33:32.585Z,77.82
2018-08-11T02:34:32.758Z,77.63
2018-08-11T02:35:32.933Z,77.15
2018-08-11T02:36:33.104Z,77.34
2018-08-11T02:37:33.267Z,76.96
2018-08-11T02:38:33.449Z,77.44
2018-08-11T02:39:33.608Z,77.63
2018-08-11T02:40:33.781Z,77.15
2018-08-11T02:41:33.953Z,77.25
2018-08-11T02:42:34.138Z,77.25
2018-08-11T02:43:34.332Z,77.25
2018-08-11T02:44:34.529Z,77.15
2018-08-11T02:45:34.710Z,77.34
2018-08-11T02:46:34.878Z,76.57
2018-08-11T02:47:35.059Z,77.34
2018-08-11T02:48:35.241Z,77.06
2018-08-11T02:49:35.419Z,77.44
2018-08-11T02:50:35.600Z,77.44
2018-08-11T02:51:35.775Z,77.25
2018-08-11T02:52:35.953Z,77.25
2018-08-11T02:53:36.136Z,77.25
2018-08-11T02:54:36.328Z,77.01
2018-08-11T02:55:36.496Z,77.34
2018-08-11T02:56:36.662Z,77.44
2018-08-11T02:57:36.839Z,76.86
2018-08-11T02:58:37.012Z,77.34
2018-08-11T02:59:37.183Z,77.92
2018-08-11T03:00:37.354Z,77.44
2018-08-11T03:01:37.534Z,77.92
2018-08-11T03:02:37.883Z,77.44
2018-08-11T03:03:37.898Z,77.92
2018-08-11T03:04:38.069Z,77.15
2018-08-11T03:05:38.253Z,77.34
2018-08-11T03:06:38.424Z,77.15
2018-08-11T03:07:38.597Z,77.63
2018-08-11T03:08:38.781Z,77.25
2018-08-11T03:09:38.975Z,77.25
2018-08-11T03:10:39.148Z,77.15
2018-08-11T03:11:39.325Z,76.86
2018-08-11T03:12:39.496Z,77.06
2018-08-11T03:13:39.672Z,77.15
2018-08-11T03:14:39.854Z,77.06
2018-08-11T03:15:40.037Z,77.34
2018-08-11T03:16:40.227Z,77.34
2018-08-11T03:17:40.419Z,76.67
2018-08-11T03:18:40.578Z,77.25
2018-08-11T03:19:40.759Z,76.48
2018-08-11T03:20:40.936Z,76.96
2018-08-11T03:21:41.120Z,76.86
2018-08-11T03:22:41.300Z,76.00
2018-08-11T03:23:41.511Z,75.81
2018-08-11T03:24:41.673Z,76.20
2018-08-11T03:25:41.845Z,75.43
2018-08-11T03:26:42.012Z,75.34
2018-08-11T03:27:42.195Z,75.14
2018-08-11T03:28:42.367Z,75.05
2018-08-11T03:29:42.546Z,75.14
2018-08-11T03:30:42.737Z,75.34
2018-08-11T03:31:42.910Z,75.37
2018-08-11T03:32:43.085Z,74.61
2018-08-11T03:33:43.254Z,74.61
2018-08-11T03:34:43.434Z,74.41
2018-08-11T03:35:43.605Z,74.61
2018-08-11T03:36:43.792Z,74.80
2018-08-11T03:37:43.974Z,74.51
2018-08-11T03:38:44.145Z,74.22
2018-08-11T03:39:44.320Z,74.80
2018-08-11T03:40:44.487Z,74.51
2018-08-11T03:41:44.666Z,74.32
2018-08-11T03:42:44.844Z,74.41
2018-08-11T03:43:45.019Z,74.51
2018-08-11T03:44:45.206Z,74.70
2018-08-11T03:45:45.377Z,74.51
2018-08-11T03:46:45.554Z,74.61
2018-08-11T03:47:45.736Z,74.70
2018-08-11T03:48:45.925Z,74.90
2018-08-11T03:49:46.098Z,74.90
2018-08-11T03:50:46.283Z,74.51
2018-08-11T03:51:46.464Z,74.32
2018-08-11T03:52:46.647Z,74.51
2018-08-11T03:53:46.824Z,74.22
2018-08-11T03:54:47.002Z,74.80
2018-08-11T03:55:47.177Z,74.80
2018-08-11T03:56:47.344Z,74.22
2018-08-11T03:57:47.519Z,74.32
2018-08-11T03:58:47.695Z,74.22
2018-08-11T03:59:47.859Z,74.32
2018-08-11T04:00:48.043Z,73.65
2018-08-11T04:01:48.216Z,74.32
2018-08-11T04:02:48.400Z,74.32
2018-08-11T04:03:48.573Z,74.04
2018-08-11T04:04:48.751Z,74.04
2018-08-11T04:05:48.933Z,74.70
2018-08-11T04:06:49.110Z,74.70
2018-08-11T04:07:49.283Z,74.41
2018-08-11T04:08:49.460Z,73.75
2018-08-11T04:09:49.639Z,73.84
2018-08-11T04:10:49.812Z,74.41
2018-08-11T04:11:49.980Z,74.32
2018-08-11T04:12:50.153Z,74.22
2018-08-11T04:13:50.331Z,74.04
2018-08-11T04:14:50.504Z,74.22
2018-08-11T04:15:50.677Z,74.22
2018-08-11T04:16:50.850Z,74.32
2018-08-11T04:17:51.015Z,73.94
2018-08-11T04:18:51.192Z,74.13
2018-08-11T04:19:51.364Z,74.22
2018-08-11T04:20:51.541Z,74.41
2018-08-11T04:21:51.714Z,74.04
2018-08-11T04:22:51.889Z,74.04
2018-08-11T04:23:52.061Z,74.32
2018-08-11T04:24:52.232Z,74.04
2018-08-11T04:25:52.403Z,74.22
2018-08-11T04:26:52.570Z,73.65
2018-08-11T04:27:52.748Z,74.04
2018-08-11T04:28:52.945Z,74.51
2018-08-11T04:29:53.142Z,74.41
2018-08-11T04:30:53.311Z,74.61
2018-08-11T04:31:53.488Z,74.84
2018-08-11T04:32:53.665Z,74.61
2018-08-11T04:33:53.851Z,74.51
2018-08-11T04:34:54.024Z,74.61
2018-08-11T04:35:54.197Z,75.09
2018-08-11T04:36:54.376Z,74.90
2018-08-11T04:37:54.555Z,74.99
2018-08-11T04:38:54.722Z,75.56
2018-08-11T04:39:54.897Z,75.37
2018-08-11T04:40:55.062Z,75.56
2018-08-11T04:41:55.270Z,75.95
2018-08-11T04:42:55.416Z,75.95
2018-08-11T04:43:55.584Z,75.47
2018-08-11T04:44:55.761Z,75.37
2018-08-11T04:45:55.937Z,75.37
2018-08-11T04:46:56.177Z,75.18
2018-08-11T04:47:56.240Z,74.70
2018-08-11T04:48:56.415Z,74.04
2018-08-11T04:49:56.576Z,73.84
2018-08-11T04:50:56.752Z,74.32
2018-08-11T04:51:56.922Z,74.70
2018-08-11T04:52:57.098Z,74.90
2018-08-11T04:53:57.277Z,74.32
2018-08-11T04:54:57.448Z,74.22
2018-08-11T04:55:57.624Z,73.84
2018-08-11T04:56:57.812Z,73.84
2018-08-11T04:57:57.992Z,73.94
2018-08-11T04:58:58.258Z,73.50
2018-08-11T04:59:58.285Z,73.88
2018-08-11T05:00:58.456Z,73.02
2018-08-11T05:02:01.959Z,72.83
2018-08-11T05:03:05.391Z,72.73
2018-08-11T05:03:59.865Z,73.21
2018-08-11T05:04:59.035Z,73.21
2018-08-11T05:05:59.211Z,73.02
2018-08-11T05:06:59.392Z,73.02
2018-08-11T05:07:59.581Z,72.73
2018-08-11T05:08:59.760Z,72.83
2018-08-11T05:09:59.938Z,72.73
2018-08-11T05:11:00.112Z,72.92
2018-08-11T05:12:00.293Z,73.02
2018-08-11T05:13:00.461Z,73.11
2018-08-11T05:14:00.638Z,72.44
2018-08-11T05:15:00.807Z,72.92
2018-08-11T05:16:00.981Z,72.83
2018-08-11T05:17:01.157Z,72.92
2018-08-11T05:18:02.663Z,72.63
2018-08-11T05:19:01.530Z,73.02
2018-08-11T05:20:01.795Z,72.92
2018-08-11T05:21:01.883Z,72.92
2018-08-11T05:22:02.121Z,72.63
2018-08-11T05:23:02.282Z,73.21
2018-08-11T05:24:02.474Z,72.86
2018-08-11T05:25:02.642Z,72.92
2018-08-11T05:26:02.840Z,72.83
2018-08-11T05:27:03.039Z,72.83
2018-08-11T05:28:03.201Z,72.44
2018-08-11T05:29:03.388Z,72.77
2018-08-11T05:30:03.644Z,72.38
2018-08-11T05:31:03.741Z,73.05
2018-08-11T05:32:03.921Z,73.05
2018-08-11T05:33:04.118Z,72.96
2018-08-11T05:34:04.280Z,72.77
2018-08-11T05:35:04.450Z,72.58
2018-08-11T05:36:04.627Z,72.00
2018-08-11T05:37:04.811Z,72.19
2018-08-11T05:38:04.986Z,71.81
2018-08-11T05:39:05.173Z,71.75
2018-08-11T05:40:05.355Z,70.98
2018-08-11T05:41:05.536Z,71.46
2018-08-11T05:42:05.903Z,71.17
2018-08-11T05:43:05.891Z,71.56
2018-08-11T05:44:06.238Z,70.70
2018-08-11T05:45:06.170Z,70.79
2018-08-11T05:46:06.356Z,70.79
2018-08-11T05:47:06.553Z,72.03
2018-08-11T05:48:06.740Z,70.98
2018-08-11T05:49:06.915Z,71.17
2018-08-11T05:50:07.104Z,70.12
2018-08-11T05:51:07.291Z,69.74
2018-08-11T05:52:07.474Z,69.35
2018-08-11T05:53:07.652Z,69.17
2018-08-11T05:54:07.835Z,69.26
2018-08-11T05:55:08.033Z,69.35
2018-08-11T05:56:08.200Z,69.64
2018-08-11T05:57:08.380Z,69.93
2018-08-11T05:58:08.565Z,69.58
2018-08-11T05:59:08.741Z,69.10
2018-08-11T06:00:08.908Z,69.58
2018-08-11T06:01:09.087Z,69.68
2018-08-11T06:02:09.309Z,68.91
2018-08-11T06:03:09.438Z,68.33
2018-08-11T06:04:09.624Z,68.18
2018-08-11T06:05:09.802Z,68.27
2018-08-11T06:06:10.327Z,67.99
2018-08-11T06:07:10.224Z,68.08
2018-08-11T06:08:10.348Z,68.18
2018-08-11T06:09:10.640Z,67.32
2018-08-11T06:10:10.647Z,67.32
2018-08-11T06:11:10.829Z,67.69
2018-08-11T06:12:11.271Z,67.89
2018-08-11T06:13:11.493Z,67.89
2018-08-11T06:14:11.363Z,67.89
2018-08-11T06:15:11.709Z,67.79
2018-08-11T06:16:11.763Z,67.73
2018-08-11T06:17:11.982Z,67.73
2018-08-11T06:18:12.169Z,67.06
2018-08-11T06:19:16.963Z,66.49
2018-08-11T06:20:15.654Z,66.39
2018-08-11T06:21:16.166Z,66.13
2018-08-11T06:22:14.294Z,66.13
2018-08-11T06:23:16.251Z,65.65
2018-08-11T06:24:16.238Z,65.88
2018-08-11T06:25:13.191Z,64.82
2018-08-11T06:26:14.772Z,64.34
2018-08-11T06:27:13.728Z,64.25
2018-08-11T06:28:13.941Z,63.57
2018-08-11T06:29:17.249Z,63.70
2018-08-11T06:30:17.241Z,63.12
2018-08-11T06:31:15.602Z,63.32
2018-08-11T06:32:17.263Z,63.70
2018-08-11T06:33:14.979Z,63.19
2018-08-11T06:34:15.317Z,63.60
2018-08-11T06:35:16.336Z,63.22
2018-08-11T06:36:16.295Z,63.89
2018-08-11T06:37:18.950Z,63.79
2018-08-11T06:38:15.474Z,63.79
2018-08-11T06:39:19.152Z,64.18
2018-08-11T06:40:17.664Z,63.79
2018-08-11T06:41:17.661Z,63.83
2018-08-11T06:42:17.226Z,63.60
2018-08-11T06:43:16.739Z,63.45
2018-08-11T06:44:16.625Z,63.15
2018-08-11T06:45:16.693Z,62.77
2018-08-11T06:46:16.840Z,62.51
2018-08-11T06:47:16.873Z,62.68
2018-08-11T06:48:16.921Z,62.23
2018-08-11T06:49:17.052Z,62.32
2018-08-11T06:50:17.537Z,61.74
2018-08-11T06:51:17.663Z,61.65
2018-08-11T06:52:17.707Z,61.65
2018-08-11T06:53:18.023Z,61.36
2018-08-11T06:54:18.103Z,60.97
2018-08-11T06:55:18.177Z,61.16
2018-08-11T06:56:18.318Z,61.46
2018-08-11T06:57:18.372Z,59.82
2018-08-11T06:58:18.974Z,59.53
2018-08-11T06:59:19.027Z,59.63
2018-08-11T07:00:19.059Z,58.76
2018-08-11T07:01:19.300Z,58.95
2018-08-11T07:02:19.316Z,59.53
2018-08-11T07:03:19.772Z,58.83
2018-08-11T07:04:19.884Z,59.02
2018-08-11T07:05:19.960Z,59.63
2018-08-11T07:06:20.148Z,58.57
2018-08-11T07:07:20.353Z,58.54
2018-08-11T07:08:20.223Z,58.18
2018-08-11T07:09:20.415Z,58.86
2018-08-11T07:10:20.698Z,58.45
2018-08-11T07:11:21.633Z,58.86
2018-08-11T07:12:20.906Z,58.83
2018-08-11T07:13:21.327Z,58.95
2018-08-11T07:14:21.190Z,58.86
2018-08-11T07:15:21.464Z,58.76
2018-08-11T07:16:21.561Z,58.57
2018-08-11T07:17:21.918Z,58.47
2018-08-11T07:18:22.130Z,58.76
2018-08-11T07:19:22.215Z,58.22
2018-08-11T07:20:22.341Z,57.45
2018-08-11T07:21:22.399Z,56.41
2018-08-11T07:22:22.598Z,56.25
2018-08-11T07:23:23.533Z,55.87
2018-08-11T07:24:22.986Z,53.70
2018-08-11T07:25:23.667Z,51.75
2018-08-11T07:26:23.234Z,50.01
2018-08-11T07:27:23.437Z,49.07
2018-08-11T07:28:23.628Z,48.35
2018-08-11T07:29:23.836Z,46.63
2018-08-11T07:30:24.026Z,45.71
2018-08-11T07:31:24.227Z,44.96
2018-08-11T07:32:25.503Z,44.51
2018-08-11T07:33:24.648Z,42.21
2018-08-11T07:34:24.792Z,41.72
2018-08-11T07:35:24.931Z,42.29
2018-08-11T07:36:25.530Z,42.19
2018-08-11T07:37:25.223Z,41.41
2018-08-11T07:38:25.551Z,41.63
2018-08-11T07:39:25.793Z,41.61
2018-08-11T07:40:26.311Z,41.16
2018-08-11T07:41:26.240Z,41.06
2018-08-11T07:42:26.406Z,41.61
2018-08-11T07:43:26.640Z,41.22
2018-08-11T07:44:27.593Z,42.09
2018-08-11T07:45:27.172Z,41.72
2018-08-11T07:46:27.035Z,41.06
2018-08-11T07:47:27.609Z,40.31
2018-08-11T07:48:27.834Z,40.52
2018-08-11T07:49:27.777Z,38.98
2018-08-11T07:50:28.514Z,38.81
2018-08-11T07:51:28.209Z,38.54
2018-08-11T07:52:28.056Z,37.66
2018-08-11T07:53:28.278Z,37.45
2018-08-11T07:54:28.463Z,37.27
2018-08-11T07:55:29.102Z,36.98
2018-08-11T07:56:28.904Z,36.90
2018-08-11T07:57:29.010Z,36.53
2018-08-11T07:58:29.196Z,36.24
2018-08-11T07:59:29.650Z,36.04
2018-08-11T08:00:29.629Z,35.94
2018-08-11T08:01:29.810Z,35.75
2018-08-11T08:02:29.779Z,35.28
2018-08-11T08:03:29.990Z,34.89
2018-08-11T08:04:30.203Z,34.61
2018-08-11T08:05:30.833Z,34.12
2018-08-11T08:06:30.871Z,34.19
2018-08-11T08:07:31.389Z,34.78
2018-08-11T08:08:30.774Z,34.58
2018-08-11T08:09:32.879Z,34.40
2018-08-11T08:10:31.369Z,34.48
2018-08-11T08:11:31.643Z,34.29
2018-08-11T08:12:31.664Z,34.11
2018-08-11T08:13:31.837Z,34.21
2018-08-11T08:14:31.872Z,34.19
2018-08-11T08:15:31.968Z,34.19
2018-08-11T08:16:32.134Z,34.17
2018-08-11T08:17:32.576Z,34.68
2018-08-11T08:18:32.782Z,34.84
2018-08-11T08:19:32.686Z,35.05
2018-08-11T08:20:33.560Z,34.56
2018-08-11T08:21:33.053Z,34.19
2018-08-11T08:22:33.299Z,34.11
2018-08-11T08:23:34.482Z,33.72
2018-08-11T08:24:33.667Z,34.01
2018-08-11T08:25:34.099Z,34.31
2018-08-11T08:26:34.359Z,34.94
2018-08-11T08:27:34.581Z,36.28
2018-08-11T08:28:34.799Z,36.10
2018-08-11T08:29:35.472Z,35.83
2018-08-11T08:30:34.614Z,35.91
2018-08-11T08:31:34.867Z,36.65
2018-08-11T08:32:35.204Z,38.09
2018-08-11T08:33:35.182Z,39.03
2018-08-11T08:34:35.225Z,38.95
2018-08-11T08:35:35.412Z,37.92
2018-08-11T08:36:35.817Z,37.24
2018-08-11T08:37:35.977Z,38.07
2018-08-11T08:38:36.073Z,39.69
2018-08-11T08:39:36.144Z,40.44
2018-08-11T08:40:36.716Z,41.58
2018-08-11T08:41:36.690Z,41.99
2018-08-11T08:42:36.765Z,40.39
2018-08-11T08:43:36.951Z,38.57
2018-08-11T08:44:37.143Z,38.23
2018-08-11T08:45:37.320Z,37.95
2018-08-11T08:46:39.586Z,36.98
2018-08-11T08:47:38.253Z,35.55
2018-08-11T08:48:37.894Z,36.94
2018-08-11T08:49:38.067Z,38.56
2018-08-11T08:50:39.628Z,38.67
2018-08-11T08:51:38.432Z,37.99
2018-08-11T08:52:38.631Z,37.14
2018-08-11T08:53:38.810Z,37.34
2018-08-11T08:54:39.003Z,36.85
2018-08-11T08:55:39.187Z,37.80
2018-08-11T08:56:39.383Z,38.64
2018-08-11T08:57:39.575Z,39.78
2018-08-11T08:58:39.765Z,40.36
2018-08-11T08:59:39.962Z,40.34
2018-08-11T09:00:40.307Z,40.15
2018-08-11T09:01:40.363Z,41.20
2018-08-11T09:02:40.556Z,40.89
2018-08-11T09:03:40.771Z,41.00
2018-08-11T09:04:40.957Z,40.69
2018-08-11T09:05:41.286Z,41.76
2018-08-11T09:06:41.300Z,41.93
2018-08-11T09:07:41.483Z,42.59
2018-08-11T09:08:41.703Z,42.41
2018-08-11T09:09:41.899Z,42.66
2018-08-11T09:10:42.338Z,41.70
2018-08-11T09:11:42.430Z,39.90
2018-08-11T09:12:42.393Z,37.92
2018-08-11T09:13:42.582Z,35.83
2018-08-11T09:14:42.755Z,34.12
2018-08-11T09:15:42.948Z,33.01
2018-08-11T09:16:43.136Z,33.33
2018-08-11T09:17:43.489Z,35.33
2018-08-11T09:18:45.448Z,36.18
2018-08-11T09:19:43.908Z,36.94
2018-08-11T09:20:44.541Z,37.68
2018-08-11T09:21:44.121Z,37.96
2018-08-11T09:22:44.321Z,38.04
2018-08-11T09:23:44.517Z,38.89
2018-08-11T09:24:44.958Z,39.74
2018-08-11T09:25:44.952Z,39.11
2018-08-11T09:26:45.094Z,37.32
2018-08-11T09:27:45.170Z,37.28
2018-08-11T09:28:45.369Z,38.52
2018-08-11T09:29:45.576Z,38.79
2018-08-11T09:30:45.770Z,39.59
2018-08-11T09:31:45.960Z,37.70
2018-08-11T09:32:46.147Z,35.91
2018-08-11T09:33:46.349Z,34.58
2018-08-11T09:34:46.567Z,33.17
2018-08-11T09:35:46.739Z,32.96
2018-08-11T09:36:47.175Z,31.90
2018-08-11T09:37:47.330Z,32.05
2018-08-11T09:38:47.678Z,33.18
2018-08-11T09:39:47.665Z,35.57
2018-08-11T09:40:47.747Z,35.25
2018-08-11T09:41:47.961Z,35.11
2018-08-11T09:42:48.157Z,33.02
2018-08-11T09:43:48.092Z,30.88
2018-08-11T09:44:48.296Z,31.96
2018-08-11T09:45:48.633Z,30.52
2018-08-11T09:46:48.719Z,29.59
2018-08-11T09:47:49.135Z,29.25
2018-08-11T09:48:49.120Z,30.98
2018-08-11T09:49:49.295Z,30.54
2018-08-11T09:50:49.494Z,30.03
2018-08-11T09:51:49.788Z,31.04
2018-08-11T09:52:49.885Z,32.00
2018-08-11T09:53:50.024Z,32.96
2018-08-11T09:54:50.107Z,34.20
2018-08-11T09:55:50.302Z,32.60
2018-08-11T09:56:50.528Z,30.80
2018-08-11T09:57:50.594Z,29.67
2018-08-11T09:58:50.799Z,28.59
2018-08-11T09:59:51.011Z,29.52
2018-08-11T10:00:51.187Z,30.87
2018-08-11T10:01:51.388Z,31.63
2018-08-11T10:02:51.592Z,32.76
2018-08-11T10:03:51.802Z,31.66
2018-08-11T10:04:52.062Z,31.17
2018-08-11T10:05:52.137Z,31.92
2018-08-11T10:06:52.389Z,31.70
2018-08-11T10:07:52.568Z,32.92
2018-08-11T10:08:52.790Z,33.44
2018-08-11T10:09:53.033Z,31.17
2018-08-11T10:10:53.096Z,30.88
2018-08-11T10:11:53.324Z,30.73
2018-08-11T10:12:53.391Z,28.83
2018-08-11T10:13:53.623Z,28.28
2018-08-11T10:14:53.693Z,26.55
2018-08-11T10:15:53.910Z,25.71
2018-08-11T10:16:54.104Z,24.46
2018-08-11T10:17:54.286Z,24.17
2018-08-11T10:18:54.478Z,23.50
2018-08-11T10:19:54.682Z,24.03
2018-08-11T10:20:54.899Z,25.62
2018-08-11T10:21:55.011Z,27.08
2018-08-11T10:22:55.204Z,28.61
2018-08-11T10:23:55.399Z,29.15
2018-08-11T10:24:55.592Z,30.49
2018-08-11T10:25:55.805Z,31.06
2018-08-11T10:26:56.028Z,31.51
2018-08-11T10:27:56.215Z,32.86
2018-08-11T10:28:56.426Z,33.33
2018-08-11T10:29:56.606Z,34.19
2018-08-11T10:30:56.792Z,35.33
2018-08-11T10:31:57.055Z,35.41
2018-08-11T10:32:57.109Z,35.88
2018-08-11T10:33:57.298Z,36.21
2018-08-11T10:34:57.499Z,35.82
2018-08-11T10:35:57.678Z,35.66
2018-08-11T10:36:57.905Z,35.45
2018-08-11T10:37:58.082Z,35.90
2018-08-11T10:38:58.270Z,36.64
2018-08-11T10:39:58.477Z,37.41
2018-08-11T10:40:58.640Z,37.43
2018-08-11T10:41:58.821Z,35.94
2018-08-11T10:42:59.004Z,34.53
2018-08-11T10:43:59.191Z,31.76
2018-08-11T10:44:59.370Z,30.24
2018-08-11T10:45:59.706Z,29.00
2018-08-11T10:46:59.738Z,28.55
2018-08-11T10:47:59.880Z,27.11
2018-08-11T10:49:00.078Z,26.05
2018-08-11T10:50:00.259Z,25.28
2018-08-11T10:51:00.463Z,24.13
2018-08-11T10:52:00.647Z,23.06
2018-08-11T10:53:00.949Z,22.10
2018-08-11T10:54:01.007Z,21.69
2018-08-11T10:55:01.194Z,21.50
2018-08-11T10:56:01.410Z,21.42
2018-08-11T10:57:01.565Z,20.72
2018-08-11T10:58:01.748Z,21.40
2018-08-11T10:59:01.936Z,20.62
2018-08-11T11:00:02.133Z,20.51
2018-08-11T11:01:02.455Z,22.06
2018-08-11T11:02:02.521Z,23.69
2018-08-11T11:03:02.893Z,25.42
2018-08-11T11:04:02.842Z,26.86
2018-08-11T11:05:03.032Z,27.23
2018-08-11T11:06:03.208Z,26.12
2018-08-11T11:07:03.391Z,25.17
2018-08-11T11:08:03.593Z,24.42
2018-08-11T11:09:03.771Z,24.38
2018-08-11T11:10:03.952Z,25.44
2018-08-11T11:11:04.140Z,26.59
2018-08-11T11:12:04.325Z,26.87
2018-08-11T11:13:04.516Z,26.88
2018-08-11T11:14:04.712Z,26.22
2018-08-11T11:15:04.893Z,25.46
2018-08-11T11:16:05.083Z,25.10
2018-08-11T11:17:05.280Z,24.33
2018-08-11T11:18:05.461Z,23.08
2018-08-11T11:19:06.131Z,22.89
2018-08-11T11:20:05.835Z,22.11
2018-08-11T11:21:06.023Z,21.53
2018-08-11T11:22:06.211Z,21.53
2018-08-11T11:23:06.411Z,21.44
2018-08-11T11:24:06.597Z,20.56
2018-08-11T11:25:06.779Z,20.37
2018-08-11T11:26:08.703Z,20.17
2018-08-11T11:27:08.727Z,20.25
2018-08-11T11:28:09.479Z,20.36
2018-08-11T11:29:09.601Z,20.15
2018-08-11T11:30:09.121Z,19.85
2018-08-11T11:31:09.634Z,19.76
2018-08-11T11:32:09.646Z,19.35
2018-08-11T11:33:09.770Z,20.14
2018-08-11T11:34:11.725Z,20.22
2018-08-11T11:35:08.789Z,19.64
2018-08-11T11:36:11.670Z,19.62
2018-08-11T11:37:08.990Z,19.72
2018-08-11T11:38:11.759Z,19.64
2018-08-11T11:39:10.022Z,19.64
2018-08-11T11:40:11.980Z,19.51
2018-08-11T11:41:09.659Z,20.21
2018-08-11T11:42:09.832Z,20.03
2018-08-11T11:43:12.335Z,20.03
2018-08-11T11:44:11.078Z,19.62
2018-08-11T11:45:10.364Z,20.56
2018-08-11T11:46:10.555Z,21.61
2018-08-11T11:47:10.738Z,22.00
2018-08-11T11:48:10.965Z,21.92
2018-08-11T11:49:11.165Z,21.74
2018-08-11T11:50:11.349Z,21.44
2018-08-11T11:51:11.538Z,21.60
2018-08-11T11:52:11.732Z,21.49
2018-08-11T11:53:11.914Z,22.35
2018-08-11T11:54:12.112Z,23.22
2018-08-11T11:55:13.537Z,23.97
2018-08-11T11:56:12.432Z,24.56
2018-08-11T11:57:12.625Z,24.48
2018-08-11T11:58:12.812Z,24.18
2018-08-11T11:59:15.016Z,24.45
2018-08-11T12:00:16.734Z,24.35
2018-08-11T12:01:17.615Z,24.74
2018-08-11T12:02:16.077Z,25.41
2018-08-11T12:03:13.621Z,25.89
2018-08-11T12:04:13.810Z,25.68
2018-08-11T12:05:14.083Z,26.62
2018-08-11T12:06:14.140Z,26.92
2018-08-11T12:07:14.327Z,27.32
2018-08-11T12:08:15.379Z,28.00
2018-08-11T12:09:14.749Z,27.32
2018-08-11T12:10:14.923Z,26.44
2018-08-11T12:11:15.108Z,26.34
2018-08-11T12:12:15.297Z,26.83
2018-08-11T12:13:15.617Z,26.14
2018-08-11T12:14:15.691Z,26.42
2018-08-11T12:15:15.870Z,26.04
2018-08-11T12:16:16.052Z,26.82
2018-08-11T12:17:16.238Z,27.01
2018-08-11T12:18:16.429Z,26.62
2018-08-11T12:19:16.607Z,27.40
2018-08-11T12:20:16.782Z,26.93
2018-08-11T12:21:16.968Z,26.73
2018-08-11T12:22:18.241Z,26.44
2018-08-11T12:23:17.420Z,26.25
2018-08-11T12:24:17.488Z,25.76
2018-08-11T12:25:17.677Z,27.32
2018-08-11T12:26:17.874Z,27.51
2018-08-11T12:27:18.070Z,25.76
2018-08-11T12:28:18.413Z,25.56
2018-08-11T12:29:18.654Z,26.23
2018-08-11T12:30:18.619Z,26.23
2018-08-11T12:31:18.992Z,26.82
2018-08-11T12:32:21.356Z,26.04
2018-08-11T12:33:19.075Z,27.10
2018-08-11T12:34:19.262Z,26.71
2018-08-11T12:35:19.455Z,27.00
2018-08-11T12:36:19.634Z,27.00
2018-08-11T12:37:19.831Z,26.90
2018-08-11T12:38:20.048Z,26.70
2018-08-11T12:39:20.207Z,27.08
2018-08-11T12:40:20.388Z,27.56
2018-08-11T12:41:20.603Z,28.14
2018-08-11T12:42:20.772Z,28.04
2018-08-11T12:43:20.968Z,28.14
2018-08-11T12:44:21.134Z,28.14
2018-08-11T12:45:21.407Z,28.43
2018-08-11T12:46:21.588Z,29.11
2018-08-11T12:47:21.647Z,29.11
2018-08-11T12:48:21.866Z,28.72
2018-08-11T12:49:22.051Z,29.01
2018-08-11T12:50:22.249Z,28.81
2018-08-11T12:51:22.437Z,29.12
2018-08-11T12:52:22.626Z,28.74
2018-08-11T12:53:22.824Z,28.34
2018-08-11T12:54:23.014Z,28.53